Rosehill, Kansas
Current Conditions -  °F | °C
As of 9:58 PM on Saturday 20 Dec 2014 (Local Time) from KIAB Reporting Station
Overcast Overcast  
Wind Chill: 36°   Ceiling: 1400
Heat Index: 42°   Visibility: 10mi
Dew Point: 38°   Wind: 12mph
Humidity: 85%   Direction: 170°S
Pressure: 30.1"   Gusts: NA
Location:  37.5599°N, 97.0971°W
Report Text: KIAB 210358Z AUTO 17010KT 10SM OVC014 06/03 A3010 RMK AO2 SLP201 T00560032
Loading
Personal Weather Stations






























Interactive Weather Map New forecast layout! Learn more

10-Day Weather Forecast

Advertisements
Track Severe Weather on mobile